Time,TemperatureF,DewpointF,PressureIn,WindDirection,WindDirectionDegrees,WindSpeedMPH,WindSpeedGustMPH,Humidity,HourlyPrecipIn,Conditions,Clouds,dailyrainin,SolarRadiationWatts/m^2,SoftwareType,DateUTC
2013-01-09 00:17:00,37.1,30.0,30.14,SSE,159,15.0,-999.0,76,-99.99,,,0.00,0,weatherlink.com 1.10,2013-01-09 05:17:00,
2013-01-09 00:32:00,37.0,30.0,30.14,South,183,14.0,-999.0,77,-99.99,,,0.00,0,weatherlink.com 1.10,2013-01-09 05:32:00,
2013-01-09 00:47:00,36.5,30.0,30.14,South,181,12.0,-999.0,78,-99.99,,,0.00,0,weatherlink.com 1.10,2013-01-09 05:47:00,
2013-01-09 01:02:00,35.9,30.0,30.13,South,181,11.0,-999.0,79,-99.99,,,0.00,0,weatherlink.com 1.10,2013-01-09 06:02:00,
2013-01-09 01:17:00,36.4,31.0,30.13,SSW,193,12.0,-999.0,80,-99.99,,,0.00,0,weatherlink.com 1.10,2013-01-09 06:17:00,
2013-01-09 01:34:00,36.9,32.0,30.12,SSW,197,11.0,-999.0,81,-99.99,,,0.00,0,weatherlink.com 1.10,2013-01-09 06:34:00,
2013-01-09 01:49:00,38.0,32.0,30.12,SSW,192,12.0,-999.0,80,-99.99,,,0.00,0,weatherlink.com 1.10,2013-01-09 06:49:00,
2013-01-09 02:02:00,38.1,32.0,30.12,SSW,194,8.0,-999.0,80,-99.99,,,0.00,0,weatherlink.com 1.10,2013-01-09 07:02:00,
2013-01-09 02:17:00,38.2,33.0,30.12,South,191,8.0,-999.0,80,-99.99,,,0.00,0,weatherlink.com 1.10,2013-01-09 07:17:00,
2013-01-09 02:32:00,37.7,32.0,30.12,SSW,194,9.0,-999.0,81,-99.99,,,0.00,0,weatherlink.com 1.10,2013-01-09 07:32:00,
2013-01-09 03:02:00,37.6,33.0,30.12,South,191,9.0,-999.0,83,-99.99,,,0.00,0,weatherlink.com 1.10,2013-01-09 08:02:00,
2013-01-09 03:17:00,38.8,34.0,30.13,SSW,199,9.0,-999.0,82,-99.99,,,0.00,0,weatherlink.com 1.10,2013-01-09 08:17:00,
2013-01-09 03:32:00,40.7,34.0,30.12,SSW,196,10.0,-999.0,78,-99.99,,,0.00,0,weatherlink.com 1.10,2013-01-09 08:32:00,
2013-01-09 03:47:00,42.0,35.0,30.12,SSW,193,12.0,-999.0,76,-99.99,,,0.00,0,weatherlink.com 1.10,2013-01-09 08:47:00,
2013-01-09 04:02:00,42.1,35.0,30.13,SW,216,17.0,-999.0,75,-99.99,,,0.00,0,weatherlink.com 1.10,2013-01-09 09:02:00,
2013-01-09 04:17:00,41.9,35.0,30.13,SSW,208,11.0,-999.0,76,-99.99,,,0.00,0,weatherlink.com 1.10,2013-01-09 09:17:00,
2013-01-09 04:32:00,41.3,35.0,30.13,SSW,199,8.0,-999.0,77,-99.99,,,0.00,0,weatherlink.com 1.10,2013-01-09 09:32:00,
2013-01-09 04:47:00,42.2,35.0,30.12,SSW,203,11.0,-999.0,76,-99.99,,,0.00,0,weatherlink.com 1.10,2013-01-09 09:47:00,
2013-01-09 05:02:00,42.0,35.0,30.13,SSW,197,7.0,-999.0,76,-99.99,,,0.00,0,weatherlink.com 1.10,2013-01-09 10:02:00,
2013-01-09 05:17:00,41.9,35.0,30.13,SW,215,12.0,-999.0,77,-99.99,,,0.00,0,weatherlink.com 1.10,2013-01-09 10:17:00,
2013-01-09 05:32:00,41.7,35.0,30.13,SSW,195,13.0,-999.0,77,-99.99,,,0.00,0,weatherlink.com 1.10,2013-01-09 10:32:00,
2013-01-09 05:47:00,41.7,35.0,30.13,SSW,202,17.0,-999.0,78,-99.99,,,0.00,0,weatherlink.com 1.10,2013-01-09 10:47:00,
2013-01-09 06:02:00,41.7,35.0,30.14,SSW,210,10.0,-999.0,78,-99.99,,,0.00,0,weatherlink.com 1.10,2013-01-09 11:02:00,
2013-01-09 06:17:00,42.3,36.0,30.14,SW,226,13.0,-999.0,77,-99.99,,,0.00,0,weatherlink.com 1.10,2013-01-09 11:17:00,
2013-01-09 06:32:00,42.1,36.0,30.15,SW,219,12.0,-999.0,78,-99.99,,,0.00,0,weatherlink.com 1.10,2013-01-09 11:32:00,
2013-01-09 06:47:00,41.8,36.0,30.16,SW,231,11.0,-999.0,79,-99.99,,,0.00,0,weatherlink.com 1.10,2013-01-09 11:47:00,
2013-01-09 07:02:00,41.4,36.0,30.16,SW,233,10.0,-999.0,80,-99.99,,,0.00,0,weatherlink.com 1.10,2013-01-09 12:02:00,
2013-01-09 07:17:00,41.3,36.0,30.17,SW,233,8.0,-999.0,80,-99.99,,,0.00,0,weatherlink.com 1.10,2013-01-09 12:17:00,
2013-01-09 07:32:00,40.8,35.0,30.18,SSW,207,10.0,-999.0,81,-99.99,,,0.00,0,weatherlink.com 1.10,2013-01-09 12:32:00,
2013-01-09 07:47:00,40.6,36.0,30.19,SW,222,7.0,-999.0,82,-99.99,,,0.00,0,weatherlink.com 1.10,2013-01-09 12:47:00,
2013-01-09 08:02:00,40.6,35.0,30.20,SSW,206,8.0,-999.0,81,-99.99,,,0.00,0,weatherlink.com 1.10,2013-01-09 13:02:00,
2013-01-09 08:17:00,40.6,36.0,30.21,SW,229,12.0,-999.0,82,-99.99,,,0.00,0,weatherlink.com 1.10,2013-01-09 13:17:00,
2013-01-09 08:32:00,40.5,35.0,30.22,SSW,204,10.0,-999.0,81,-99.99,,,0.00,11,weatherlink.com 1.10,2013-01-09 13:32:00,
2013-01-09 09:02:00,40.8,35.0,30.23,WSW,243,10.0,-999.0,80,-99.99,,,0.00,25,weatherlink.com 1.10,2013-01-09 14:02:00,
2013-01-09 09:17:00,41.0,35.0,30.25,WSW,242,7.0,-999.0,79,-99.99,,,0.00,33,weatherlink.com 1.10,2013-01-09 14:17:00,
2013-01-09 09:32:00,41.1,35.0,30.26,WSW,250,16.0,-999.0,78,-99.99,,,0.00,83,weatherlink.com 1.10,2013-01-09 14:32:00,
2013-01-09 09:47:00,41.2,35.0,30.26,SW,219,9.0,-999.0,78,-99.99,,,0.00,178,weatherlink.com 1.10,2013-01-09 14:47:00,
2013-01-09 10:02:00,41.3,35.0,30.27,SW,217,13.0,-999.0,77,-99.99,,,0.00,221,weatherlink.com 1.10,2013-01-09 15:02:00,
2013-01-09 10:17:00,41.3,35.0,30.27,West,274,9.0,-999.0,77,-99.99,,,0.00,255,weatherlink.com 1.10,2013-01-09 15:17:00,
2013-01-09 10:32:00,41.3,34.0,30.28,SW,227,7.0,-999.0,76,-99.99,,,0.00,285,weatherlink.com 1.10,2013-01-09 15:32:00,
2013-01-09 10:47:00,41.5,34.0,30.29,WSW,257,12.0,-999.0,76,-99.99,,,0.00,315,weatherlink.com 1.10,2013-01-09 15:47:00,
2013-01-09 11:02:00,41.6,34.0,30.29,WSW,240,6.0,-999.0,75,-99.99,,,0.00,308,weatherlink.com 1.10,2013-01-09 16:02:00,
2013-01-09 11:17:00,41.6,34.0,30.29,West,263,12.0,-999.0,74,-99.99,,,0.00,369,weatherlink.com 1.10,2013-01-09 16:17:00,
2013-01-09 11:32:00,42.0,34.0,30.28,SW,216,11.0,-999.0,74,-99.99,,,0.00,396,weatherlink.com 1.10,2013-01-09 16:32:00,
2013-01-09 11:47:00,42.2,34.0,30.29,SSW,210,7.0,-999.0,73,-99.99,,,0.00,410,weatherlink.com 1.10,2013-01-09 16:47:00,
2013-01-09 12:02:00,42.7,35.0,30.28,West,259,10.0,-999.0,73,-99.99,,,0.00,436,weatherlink.com 1.10,2013-01-09 17:02:00,
2013-01-09 12:17:00,43.1,34.0,30.28,WSW,245,5.0,-999.0,71,-99.99,,,0.00,411,weatherlink.com 1.10,2013-01-09 17:17:00,
2013-01-09 12:32:00,43.6,34.0,30.27,West,270,5.0,-999.0,70,-99.99,,,0.00,454,weatherlink.com 1.10,2013-01-09 17:32:00,
2013-01-09 12:48:00,43.7,34.0,30.27,SW,218,14.0,-999.0,69,-99.99,,,0.00,302,weatherlink.com 1.10,2013-01-09 17:48:00,
2013-01-09 13:02:00,43.9,34.0,30.27,SW,235,9.0,-999.0,69,-99.99,,,0.00,489,weatherlink.com 1.10,2013-01-09 18:02:00,
2013-01-09 13:17:00,44.0,34.0,30.27,SW,235,11.0,-999.0,68,-99.99,,,0.00,276,weatherlink.com 1.10,2013-01-09 18:17:00,
2013-01-09 13:32:00,44.3,35.0,30.27,WSW,253,9.0,-999.0,69,-99.99,,,0.00,446,weatherlink.com 1.10,2013-01-09 18:32:00,
2013-01-09 13:47:00,44.8,35.0,30.28,SW,225,9.0,-999.0,68,-99.99,,,0.00,408,weatherlink.com 1.10,2013-01-09 18:47:00,
2013-01-09 14:02:00,45.0,34.0,30.29,West,278,8.0,-999.0,66,-99.99,,,0.00,367,weatherlink.com 1.10,2013-01-09 19:02:00,
2013-01-09 14:17:00,45.6,34.0,30.29,WSW,253,14.0,-999.0,63,-99.99,,,0.00,413,weatherlink.com 1.10,2013-01-09 19:17:00,
2013-01-09 14:32:00,45.8,35.0,30.29,WSW,247,7.0,-999.0,65,-99.99,,,0.00,348,weatherlink.com 1.10,2013-01-09 19:32:00,
2013-01-09 14:47:00,45.1,34.0,30.30,WSW,240,13.0,-999.0,66,-99.99,,,0.00,288,weatherlink.com 1.10,2013-01-09 19:47:00,
2013-01-09 15:02:00,45.3,35.0,30.31,West,266,15.0,-999.0,67,-99.99,,,0.00,253,weatherlink.com 1.10,2013-01-09 20:02:00,
2013-01-09 15:17:00,45.0,35.0,30.32,WSW,251,10.0,-999.0,68,-99.99,,,0.00,272,weatherlink.com 1.10,2013-01-09 20:17:00,
2013-01-09 15:32:00,45.0,35.0,30.33,SW,233,9.0,-999.0,69,-99.99,,,0.00,239,weatherlink.com 1.10,2013-01-09 20:32:00,
2013-01-09 15:47:00,44.9,36.0,30.34,WSW,249,9.0,-999.0,70,-99.99,,,0.00,209,weatherlink.com 1.10,2013-01-09 20:47:00,
2013-01-09 16:17:00,45.1,36.0,30.34,SW,223,8.0,-999.0,70,-99.99,,,0.00,125,weatherlink.com 1.10,2013-01-09 21:17:00,
2013-01-09 16:32:00,45.2,36.0,30.35,WSW,240,9.0,-999.0,71,-99.99,,,0.00,121,weatherlink.com 1.10,2013-01-09 21:32:00,
2013-01-09 16:47:00,45.2,36.0,30.35,SW,236,8.0,-999.0,71,-99.99,,,0.00,72,weatherlink.com 1.10,2013-01-09 21:47:00,
2013-01-09 17:02:00,44.7,36.0,30.36,West,267,7.0,-999.0,71,-99.99,,,0.00,37,weatherlink.com 1.10,2013-01-09 22:02:00,
2013-01-09 17:17:00,43.8,36.0,30.36,SSW,208,8.0,-999.0,73,-99.99,,,0.00,11,weatherlink.com 1.10,2013-01-09 22:17:00,
2013-01-09 17:32:00,43.4,35.0,30.36,WSW,249,5.0,-999.0,73,-99.99,,,0.00,0,weatherlink.com 1.10,2013-01-09 22:32:00,
2013-01-09 17:47:00,42.4,35.0,30.37,SW,226,4.0,-999.0,75,-99.99,,,0.00,0,weatherlink.com 1.10,2013-01-09 22:47:00,
2013-01-09 18:02:00,42.1,35.0,30.38,WSW,239,4.0,-999.0,75,-99.99,,,0.00,0,weatherlink.com 1.10,2013-01-09 23:02:00,
2013-01-09 18:17:00,41.5,34.0,30.38,SW,218,8.0,-999.0,76,-99.99,,,0.00,0,weatherlink.com 1.10,2013-01-09 23:17:00,
2013-01-09 18:32:00,41.8,35.0,30.40,SW,234,4.0,-999.0,76,-99.99,,,0.00,0,weatherlink.com 1.10,2013-01-09 23:32:00,
2013-01-09 18:47:00,41.6,34.0,30.40,WSW,248,9.0,-999.0,75,-99.99,,,0.00,0,weatherlink.com 1.10,2013-01-09 23:47:00,
2013-01-09 19:02:00,40.9,34.0,30.41,SW,233,6.0,-999.0,75,-99.99,,,0.00,0,weatherlink.com 1.10,2013-01-10 00:02:00,
2013-01-09 19:17:00,40.4,33.0,30.40,SW,236,5.0,-999.0,74,-99.99,,,0.00,0,weatherlink.com 1.10,2013-01-10 00:17:00,
2013-01-09 19:32:00,39.5,32.0,30.41,SW,228,5.0,-999.0,73,-99.99,,,0.00,0,weatherlink.com 1.10,2013-01-10 00:32:00,
2013-01-09 19:48:00,39.0,30.0,30.41,SW,224,4.0,-999.0,70,-99.99,,,0.00,0,weatherlink.com 1.10,2013-01-10 00:48:00,
2013-01-09 20:02:00,39.1,29.0,30.41,WSW,246,6.0,-999.0,68,-99.99,,,0.00,0,weatherlink.com 1.10,2013-01-10 01:02:00,
2013-01-09 20:18:00,39.1,29.0,30.41,SW,231,4.0,-999.0,66,-99.99,,,0.00,0,weatherlink.com 1.10,2013-01-10 01:18:00,
2013-01-09 20:32:00,38.7,28.0,30.42,WSW,253,7.0,-999.0,66,-99.99,,,0.00,0,weatherlink.com 1.10,2013-01-10 01:32:00,
2013-01-09 20:47:00,38.7,28.0,30.42,WSW,246,4.0,-999.0,65,-99.99,,,0.00,0,weatherlink.com 1.10,2013-01-10 01:47:00,
2013-01-09 21:17:00,38.0,27.0,30.43,WSW,245,2.0,-999.0,64,-99.99,,,0.00,0,weatherlink.com 1.10,2013-01-10 02:17:00,
2013-01-09 21:32:00,38.0,26.0,30.43,WSW,258,2.0,-999.0,63,-99.99,,,0.00,0,weatherlink.com 1.10,2013-01-10 02:32:00,
2013-01-09 21:47:00,37.3,26.0,30.44,WSW,250,3.0,-999.0,64,-99.99,,,0.00,0,weatherlink.com 1.10,2013-01-10 02:47:00,
2013-01-09 22:17:00,35.9,26.0,30.45,SW,226,3.0,-999.0,67,-99.99,,,0.00,0,weatherlink.com 1.10,2013-01-10 03:17:00,
2013-01-09 22:32:00,35.7,26.0,30.45,SSW,211,5.0,-999.0,69,-99.99,,,0.00,0,weatherlink.com 1.10,2013-01-10 03:32:00,
2013-01-09 22:47:00,35.3,26.0,30.46,SW,217,3.0,-999.0,68,-99.99,,,0.00,0,weatherlink.com 1.10,2013-01-10 03:47:00,
2013-01-09 23:02:00,36.2,25.0,30.47,SW,232,3.0,-999.0,64,-99.99,,,0.00,0,weatherlink.com 1.10,2013-01-10 04:02:00,
2013-01-09 23:18:00,36.2,25.0,30.47,WSW,256,0.0,-999.0,63,-99.99,,,0.00,0,weatherlink.com 1.10,2013-01-10 04:18:00,
2013-01-09 23:34:00,35.5,25.0,30.48,NW,307,0.0,-999.0,65,-99.99,,,0.00,0,weatherlink.com 1.10,2013-01-10 04:34:00,